Time,TemperatureF,DewpointF,PressureIn,WindDirection,WindDirectionDegrees,WindSpeedMPH,WindSpeedGustMPH,Humidity,HourlyPrecipIn,Conditions,Clouds,dailyrainin,SoftwareType,DateUTC
2014-02-13 00:11:00,54.0,49.0,29.60,ESE,109,6.0,-999.0,85,-99.99,,,0.00,,2014-02-13 08:11:00,
2014-02-13 00:22:00,54.0,49.0,29.60,ESE,109,6.0,-999.0,85,-99.99,,,0.00,,2014-02-13 08:22:00,
2014-02-13 00:32:00,54.0,49.0,29.60,ESE,109,6.0,-999.0,85,-99.99,,,0.00,,2014-02-13 08:32:00,
2014-02-13 00:42:00,54.0,49.0,29.60,ESE,109,6.0,-999.0,85,-99.99,,,0.00,,2014-02-13 08:42:00,
2014-02-13 01:11:00,53.0,47.0,29.59,SE,135,5.0,-999.0,82,0.00,,,0.00,,2014-02-13 09:11:00,
2014-02-13 01:21:00,53.0,47.0,29.59,SE,135,5.0,-999.0,82,0.00,,,0.00,,2014-02-13 09:21:00,
2014-02-13 01:33:00,53.0,47.0,29.59,SE,135,5.0,-999.0,82,0.00,,,0.00,,2014-02-13 09:33:00,
2014-02-13 01:43:00,53.0,47.0,29.59,SE,135,5.0,-999.0,82,0.00,,,0.00,,2014-02-13 09:43:00,
2014-02-13 02:13:00,52.0,47.0,29.58,ENE,64,2.0,-999.0,83,0.00,,,-99.99,,2014-02-13 10:13:00,
2014-02-13 02:23:00,52.0,47.0,29.58,ENE,64,2.0,-999.0,83,0.00,,,-99.99,,2014-02-13 10:23:00,
2014-02-13 02:33:00,52.0,47.0,29.58,ENE,64,2.0,-999.0,83,0.00,,,-99.99,,2014-02-13 10:33:00,
2014-02-13 02:43:00,52.0,47.0,29.58,ENE,64,2.0,-999.0,83,0.00,,,-99.99,,2014-02-13 10:43:00,
2014-02-13 03:12:00,51.0,47.0,29.57,ESE,105,6.0,-999.0,85,0.00,,,0.00,,2014-02-13 11:12:00,
2014-02-13 03:22:00,51.0,47.0,29.57,ESE,105,6.0,-999.0,85,0.00,,,0.00,,2014-02-13 11:22:00,
2014-02-13 03:32:00,51.0,47.0,29.57,ESE,105,6.0,-999.0,85,0.00,,,0.00,,2014-02-13 11:32:00,
2014-02-13 03:42:00,51.0,47.0,29.57,ESE,105,6.0,-999.0,85,0.00,,,0.00,,2014-02-13 11:42:00,
2014-02-13 04:12:00,50.0,46.0,29.56,North,2,5.0,-999.0,84,0.00,,,0.00,,2014-02-13 12:12:00,
2014-02-13 04:22:00,50.0,46.0,29.56,North,2,5.0,-999.0,84,0.00,,,0.00,,2014-02-13 12:22:00,
2014-02-13 04:32:00,50.0,46.0,29.56,North,2,5.0,-999.0,84,0.00,,,0.00,,2014-02-13 12:32:00,
2014-02-13 04:42:00,50.0,46.0,29.56,North,2,5.0,-999.0,84,0.00,,,0.00,,2014-02-13 12:42:00,
2014-02-13 05:11:00,50.0,46.0,29.57,NNE,17,6.0,-999.0,85,0.00,,,0.00,,2014-02-13 13:11:00,
2014-02-13 05:22:00,50.0,46.0,29.57,NNE,17,6.0,-999.0,85,0.00,,,0.00,,2014-02-13 13:22:00,
2014-02-13 05:32:00,50.0,46.0,29.57,NNE,17,6.0,-999.0,85,0.00,,,0.00,,2014-02-13 13:32:00,
2014-02-13 05:42:00,50.0,46.0,29.57,NNE,17,6.0,-999.0,85,0.00,,,0.00,,2014-02-13 13:42:00,
2014-02-13 06:12:00,50.0,45.0,29.56,WNW,302,3.0,-999.0,83,0.00,,,0.00,,2014-02-13 14:12:00,
2014-02-13 06:22:00,50.0,45.0,29.56,WNW,302,3.0,-999.0,83,0.00,,,0.00,,2014-02-13 14:22:00,
2014-02-13 06:32:00,50.0,45.0,29.56,WNW,302,3.0,-999.0,83,0.00,,,0.00,,2014-02-13 14:32:00,
2014-02-13 06:42:00,50.0,45.0,29.56,WNW,302,3.0,-999.0,83,0.00,,,0.00,,2014-02-13 14:42:00,
2014-02-13 07:11:00,50.0,45.0,29.59,SE,130,7.0,-999.0,85,0.00,,,-99.99,,2014-02-13 15:11:00,
2014-02-13 07:22:00,50.0,45.0,29.59,SE,130,7.0,-999.0,85,0.00,,,-99.99,,2014-02-13 15:22:00,
2014-02-13 07:33:00,50.0,45.0,29.59,SE,130,7.0,-999.0,85,0.00,,,-99.99,,2014-02-13 15:33:00,
2014-02-13 07:43:00,50.0,45.0,29.59,SE,130,7.0,-999.0,85,0.00,,,-99.99,,2014-02-13 15:43:00,
2014-02-13 08:13:00,50.0,45.0,29.59,SE,143,4.0,-999.0,83,0.00,,,0.00,,2014-02-13 16:13:00,
2014-02-13 08:23:00,50.0,45.0,29.59,SE,143,4.0,-999.0,83,0.00,,,0.00,,2014-02-13 16:23:00,
2014-02-13 08:33:00,50.0,45.0,29.59,SE,143,4.0,-999.0,83,0.00,,,0.00,,2014-02-13 16:33:00,
2014-02-13 08:42:00,50.0,45.0,29.59,SE,143,4.0,-999.0,83,0.00,,,0.00,,2014-02-13 16:42:00,
2014-02-13 09:12:00,54.0,47.0,29.60,SE,131,2.0,-999.0,75,0.00,,,0.00,,2014-02-13 17:12:00,
2014-02-13 09:22:00,54.0,47.0,29.60,SE,131,2.0,-999.0,75,0.00,,,0.00,,2014-02-13 17:22:00,
2014-02-13 09:33:00,54.0,47.0,29.60,SE,131,2.0,-999.0,75,0.00,,,0.00,,2014-02-13 17:33:00,
2014-02-13 09:43:00,54.0,47.0,29.60,SE,131,2.0,-999.0,75,0.00,,,0.00,,2014-02-13 17:43:00,
2014-02-13 10:12:00,58.0,46.0,29.59,ESE,118,5.0,-999.0,65,0.00,,,0.00,,2014-02-13 18:12:00,
2014-02-13 10:22:00,58.0,46.0,29.59,ESE,118,5.0,-999.0,65,0.00,,,0.00,,2014-02-13 18:22:00,
2014-02-13 10:32:00,58.0,46.0,29.59,ESE,118,5.0,-999.0,65,0.00,,,0.00,,2014-02-13 18:32:00,
2014-02-13 10:42:00,58.0,46.0,29.59,ESE,118,5.0,-999.0,65,0.00,,,0.00,,2014-02-13 18:42:00,
2014-02-13 11:12:00,65.0,49.0,29.56,SW,234,3.0,-999.0,57,0.00,,,0.00,,2014-02-13 19:12:00,
2014-02-13 11:22:00,65.0,49.0,29.56,SW,234,3.0,-999.0,57,0.00,,,0.00,,2014-02-13 19:22:00,
2014-02-13 11:33:00,65.0,49.0,29.56,SW,234,3.0,-999.0,57,0.00,,,0.00,,2014-02-13 19:33:00,
2014-02-13 11:42:00,65.0,49.0,29.56,SW,234,3.0,-999.0,57,0.00,,,0.00,,2014-02-13 19:42:00,
2014-02-13 12:11:00,65.0,50.0,29.56,SW,235,6.0,-999.0,58,0.00,,,0.00,,2014-02-13 20:11:00,
2014-02-13 12:22:00,65.0,50.0,29.56,SW,235,6.0,-999.0,58,0.00,,,0.00,,2014-02-13 20:22:00,
2014-02-13 12:32:00,65.0,50.0,29.56,SW,235,6.0,-999.0,58,0.00,,,0.00,,2014-02-13 20:32:00,
2014-02-13 12:42:00,65.0,50.0,29.56,SW,235,6.0,-999.0,58,0.00,,,0.00,,2014-02-13 20:42:00,
2014-02-13 13:11:00,68.0,51.0,29.55,WNW,293,5.0,-999.0,54,0.01,,,0.01,,2014-02-13 21:11:00,
2014-02-13 13:22:00,68.0,51.0,29.55,WNW,293,5.0,-999.0,54,0.01,,,0.01,,2014-02-13 21:22:00,
2014-02-13 13:33:00,68.0,51.0,29.55,WNW,293,5.0,-999.0,54,0.01,,,0.01,,2014-02-13 21:33:00,
2014-02-13 13:43:00,68.0,51.0,29.55,WNW,293,5.0,-999.0,54,0.01,,,0.01,,2014-02-13 21:43:00,
2014-02-13 14:23:00,72.0,50.0,29.50,SW,216,2.0,-999.0,46,0.00,,,0.00,,2014-02-13 22:23:00,
2014-02-13 14:33:00,72.0,50.0,29.50,SW,216,2.0,-999.0,46,0.00,,,0.00,,2014-02-13 22:33:00,
2014-02-13 14:43:00,72.0,50.0,29.50,SW,216,2.0,-999.0,46,0.00,,,0.00,,2014-02-13 22:43:00,
2014-02-13 15:12:00,72.0,52.0,29.49,WNW,298,3.0,-999.0,49,0.00,,,0.00,,2014-02-13 23:12:00,
2014-02-13 15:22:00,72.0,52.0,29.49,WNW,298,3.0,-999.0,49,0.00,,,0.00,,2014-02-13 23:22:00,
2014-02-13 15:33:00,72.0,52.0,29.49,WNW,298,3.0,-999.0,49,0.00,,,0.00,,2014-02-13 23:33:00,
2014-02-13 15:43:00,72.0,52.0,29.49,WNW,298,3.0,-999.0,49,0.00,,,0.00,,2014-02-13 23:43:00,
2014-02-13 16:11:00,70.0,52.0,29.48,SW,224,3.0,-999.0,52,0.00,,,0.00,,2014-02-14 00:11:00,
2014-02-13 16:21:00,70.0,52.0,29.48,SW,224,3.0,-999.0,52,0.00,,,0.00,,2014-02-14 00:21:00,
2014-02-13 16:32:00,70.0,52.0,29.48,SW,224,3.0,-999.0,52,0.00,,,0.00,,2014-02-14 00:32:00,
2014-02-13 16:42:00,70.0,52.0,29.48,SW,224,3.0,-999.0,52,0.00,,,0.00,,2014-02-14 00:42:00,
2014-02-13 17:11:00,68.0,53.0,29.50,WSW,255,3.0,-999.0,57,0.00,,,0.00,,2014-02-14 01:11:00,
2014-02-13 17:22:00,68.0,53.0,29.50,WSW,255,3.0,-999.0,57,0.00,,,0.00,,2014-02-14 01:22:00,
2014-02-13 17:32:00,68.0,53.0,29.50,WSW,255,3.0,-999.0,57,0.00,,,0.00,,2014-02-14 01:32:00,
2014-02-13 17:42:00,68.0,53.0,29.50,WSW,255,3.0,-999.0,57,0.00,,,0.00,,2014-02-14 01:42:00,
2014-02-13 18:12:00,64.0,53.0,29.50,SSW,195,2.0,-999.0,67,0.00,,,0.00,,2014-02-14 02:12:00,
2014-02-13 18:21:00,64.0,53.0,29.50,SSW,195,2.0,-999.0,67,0.00,,,0.00,,2014-02-14 02:21:00,
2014-02-13 18:32:00,64.0,53.0,29.50,SSW,195,2.0,-999.0,67,0.00,,,0.00,,2014-02-14 02:32:00,
2014-02-13 18:42:00,64.0,53.0,29.50,SSW,195,2.0,-999.0,67,0.00,,,0.00,,2014-02-14 02:42:00,
2014-02-13 19:12:00,62.0,52.0,29.49,ENE,68,5.0,-999.0,71,0.00,,,0.00,,2014-02-14 03:12:00,
2014-02-13 19:22:00,62.0,52.0,29.49,ENE,68,5.0,-999.0,71,0.00,,,0.00,,2014-02-14 03:22:00,
2014-02-13 19:33:00,62.0,52.0,29.49,ENE,68,5.0,-999.0,71,0.00,,,0.00,,2014-02-14 03:33:00,
2014-02-13 19:44:00,62.0,52.0,29.49,ENE,68,5.0,-999.0,71,0.00,,,0.00,,2014-02-14 03:44:00,
2014-02-13 20:13:00,60.0,52.0,29.52,SSE,149,3.0,-999.0,75,0.00,,,0.00,,2014-02-14 04:13:00,
2014-02-13 20:23:00,60.0,52.0,29.52,SSE,149,3.0,-999.0,75,0.00,,,0.00,,2014-02-14 04:23:00,
2014-02-13 20:33:00,60.0,52.0,29.52,SSE,149,3.0,-999.0,75,0.00,,,0.00,,2014-02-14 04:33:00,
2014-02-13 20:43:00,60.0,52.0,29.52,SSE,149,3.0,-999.0,75,0.00,,,0.00,,2014-02-14 04:43:00,
2014-02-13 21:12:00,58.0,52.0,29.52,SW,216,3.0,-999.0,79,0.00,,,0.00,,2014-02-14 05:12:00,
2014-02-13 21:22:00,58.0,52.0,29.52,SW,216,3.0,-999.0,79,0.00,,,0.00,,2014-02-14 05:22:00,
2014-02-13 21:43:00,58.0,52.0,29.52,SW,216,3.0,-999.0,79,0.00,,,0.00,,2014-02-14 05:43:00,